sensor_id;sensor_type;location;lat;lon;timestamp;temperature;humidity
6666;DHT22;3369;49.906;8.598;2024-03-23T00:55:37;10.00;99.90
6666;DHT22;3369;49.906;8.598;2024-03-23T00:58:03;10.00;99.90
6666;DHT22;3369;49.906;8.598;2024-03-23T01:00:29;10.10;99.90
6666;DHT22;3369;49.906;8.598;2024-03-23T01:02:55;10.10;99.90
6666;DHT22;3369;49.906;8.598;2024-03-23T01:05:20;10.10;99.90
6666;DHT22;3369;49.906;8.598;2024-03-23T01:07:50;10.20;99.90
6666;DHT22;3369;49.906;8.598;2024-03-23T01:10:15;10.20;99.90
6666;DHT22;3369;49.906;8.598;2024-03-23T01:12:41;10.20;99.90
6666;DHT22;3369;49.906;8.598;2024-03-23T01:15:07;10.20;99.90
6666;DHT22;3369;49.906;8.598;2024-03-23T01:17:33;10.20;99.90
6666;DHT22;3369;49.906;8.598;2024-03-23T01:19:58;10.20;99.90
6666;DHT22;3369;49.906;8.598;2024-03-23T01:22:24;10.20;99.90
6666;DHT22;3369;49.906;8.598;2024-03-23T01:24:49;10.00;99.90
6666;DHT22;3369;49.906;8.598;2024-03-23T01:27:15;10.00;99.90
6666;DHT22;3369;49.906;8.598;2024-03-23T01:29:40;10.10;99.90
6666;DHT22;3369;49.906;8.598;2024-03-23T01:32:06;10.10;99.90
6666;DHT22;3369;49.906;8.598;2024-03-23T01:34:32;10.10;99.90
6666;DHT22;3369;49.906;8.598;2024-03-23T01:36:58;10.10;99.90
6666;DHT22;3369;49.906;8.598;2024-03-23T01:39:24;10.10;99.90
6666;DHT22;3369;49.906;8.598;2024-03-23T01:41:49;10.10;99.90
6666;DHT22;3369;49.906;8.598;2024-03-23T01:44:15;10.10;99.90
6666;DHT22;3369;49.906;8.598;2024-03-23T01:46:41;10.10;99.90
6666;DHT22;3369;49.906;8.598;2024-03-23T01:49:07;10.20;99.90
6666;DHT22;3369;49.906;8.598;2024-03-23T01:51:34;10.20;99.90
6666;DHT22;3369;49.906;8.598;2024-03-23T01:54:02;10.20;99.90
6666;DHT22;3369;49.906;8.598;2024-03-23T01:56:33;10.20;99.90
6666;DHT22;3369;49.906;8.598;2024-03-23T01:59:01;10.20;99.90
6666;DHT22;3369;49.906;8.598;2024-03-23T02:01:26;10.20;99.90
6666;DHT22;3369;49.906;8.598;2024-03-23T02:03:52;10.20;99.90
6666;DHT22;3369;49.906;8.598;2024-03-23T02:06:17;10.30;99.90
6666;DHT22;3369;49.906;8.598;2024-03-23T02:08:43;10.20;99.90
6666;DHT22;3369;49.906;8.598;2024-03-23T02:11:09;10.20;99.90
6666;DHT22;3369;49.906;8.598;2024-03-23T02:13:35;10.10;99.90
6666;DHT22;3369;49.906;8.598;2024-03-23T02:16:01;10.10;99.90
6666;DHT22;3369;49.906;8.598;2024-03-23T02:18:27;10.10;99.90
6666;DHT22;3369;49.906;8.598;2024-03-23T02:20:53;10.10;99.90
6666;DHT22;3369;49.906;8.598;2024-03-23T02:23:19;10.10;99.90
6666;DHT22;3369;49.906;8.598;2024-03-23T02:25:45;10.10;99.90
6666;DHT22;3369;49.906;8.598;2024-03-23T02:28:11;10.10;99.90
6666;DHT22;3369;49.906;8.598;2024-03-23T02:30:37;10.10;99.90
6666;DHT22;3369;49.906;8.598;2024-03-23T02:33:03;10.00;99.90
6666;DHT22;3369;49.906;8.598;2024-03-23T02:35:29;10.00;99.90
6666;DHT22;3369;49.906;8.598;2024-03-23T02:37:54;10.00;99.90
6666;DHT22;3369;49.906;8.598;2024-03-23T02:40:22;10.10;99.90
6666;DHT22;3369;49.906;8.598;2024-03-23T02:42:48;10.00;99.90
6666;DHT22;3369;49.906;8.598;2024-03-23T02:45:13;10.00;99.90
6666;DHT22;3369;49.906;8.598;2024-03-23T02:47:39;9.90;99.90
6666;DHT22;3369;49.906;8.598;2024-03-23T02:50:05;10.00;99.90
6666;DHT22;3369;49.906;8.598;2024-03-23T02:52:31;9.90;99.90
6666;DHT22;3369;49.906;8.598;2024-03-23T02:54:56;9.90;99.90
6666;DHT22;3369;49.906;8.598;2024-03-23T02:57:23;9.90;99.90
6666;DHT22;3369;49.906;8.598;2024-03-23T02:59:48;9.90;99.90
6666;DHT22;3369;49.906;8.598;2024-03-23T03:02:15;9.90;99.90
6666;DHT22;3369;49.906;8.598;2024-03-23T03:04:41;9.90;99.90
6666;DHT22;3369;49.906;8.598;2024-03-23T03:07:06;9.90;99.90
6666;DHT22;3369;49.906;8.598;2024-03-23T03:09:32;9.80;99.90
6666;DHT22;3369;49.906;8.598;2024-03-23T03:11:58;9.80;99.90
6666;DHT22;3369;49.906;8.598;2024-03-23T03:14:24;9.80;99.90
6666;DHT22;3369;49.906;8.598;2024-03-23T03:16:49;9.80;99.90
6666;DHT22;3369;49.906;8.598;2024-03-23T03:19:15;9.70;99.90
6666;DHT22;3369;49.906;8.598;2024-03-23T03:21:42;9.70;99.90
6666;DHT22;3369;49.906;8.598;2024-03-23T03:24:07;9.70;99.90
6666;DHT22;3369;49.906;8.598;2024-03-23T03:26:33;9.70;99.90
6666;DHT22;3369;49.906;8.598;2024-03-23T03:28:58;9.70;99.90
6666;DHT22;3369;49.906;8.598;2024-03-23T03:31:24;9.70;99.90
6666;DHT22;3369;49.906;8.598;2024-03-23T03:33:50;9.70;99.90
6666;DHT22;3369;49.906;8.598;2024-03-23T03:36:16;9.60;99.90
6666;DHT22;3369;49.906;8.598;2024-03-23T03:38:42;9.60;99.90
6666;DHT22;3369;49.906;8.598;2024-03-23T03:41:07;9.60;99.90
6666;DHT22;3369;49.906;8.598;2024-03-23T03:43:33;9.50;99.90
6666;DHT22;3369;49.906;8.598;2024-03-23T03:46:00;9.50;99.90
6666;DHT22;3369;49.906;8.598;2024-03-23T03:48:26;9.50;99.90
6666;DHT22;3369;49.906;8.598;2024-03-23T03:50:52;9.50;99.90
6666;DHT22;3369;49.906;8.598;2024-03-23T03:53:19;9.60;99.90
6666;DHT22;3369;49.906;8.598;2024-03-23T03:55:44;9.60;99.90
6666;DHT22;3369;49.906;8.598;2024-03-23T03:58:10;9.70;99.90
6666;DHT22;3369;49.906;8.598;2024-03-23T04:00:36;9.70;99.90
6666;DHT22;3369;49.906;8.598;2024-03-23T04:03:02;9.80;99.90
6666;DHT22;3369;49.906;8.598;2024-03-23T04:05:27;9.80;99.90
6666;DHT22;3369;49.906;8.598;2024-03-23T04:07:53;9.90;99.90
6666;DHT22;3369;49.906;8.598;2024-03-23T04:10:19;9.90;99.90
6666;DHT22;3369;49.906;8.598;2024-03-23T04:12:45;9.90;99.90
6666;DHT22;3369;49.906;8.598;2024-03-23T04:15:11;10.00;99.90
6666;DHT22;3369;49.906;8.598;2024-03-23T04:17:37;10.00;99.90
6666;DHT22;3369;49.906;8.598;2024-03-23T04:20:03;10.10;99.90
6666;DHT22;3369;49.906;8.598;2024-03-23T04:22:35;10.10;99.90
6666;DHT22;3369;49.906;8.598;2024-03-23T04:25:00;10.20;99.90
6666;DHT22;3369;49.906;8.598;2024-03-23T04:27:34;10.30;99.90
6666;DHT22;3369;49.906;8.598;2024-03-23T04:30:00;10.20;99.90
6666;DHT22;3369;49.906;8.598;2024-03-23T04:32:26;10.30;99.90
6666;DHT22;3369;49.906;8.598;2024-03-23T04:34:52;10.20;99.90
6666;DHT22;3369;49.906;8.598;2024-03-23T04:37:18;10.10;99.90
6666;DHT22;3369;49.906;8.598;2024-03-23T04:39:45;10.10;99.90
6666;DHT22;3369;49.906;8.598;2024-03-23T04:42:10;10.00;99.90
6666;DHT22;3369;49.906;8.598;2024-03-23T04:44:37;9.90;99.90
6666;DHT22;3369;49.906;8.598;2024-03-23T04:47:03;9.80;99.90
6666;DHT22;3369;49.906;8.598;2024-03-23T04:49:30;9.70;99.90
6666;DHT22;3369;49.906;8.598;2024-03-23T04:51:55;9.50;99.90
6666;DHT22;3369;49.906;8.598;2024-03-23T04:54:21;9.50;99.90
6666;DHT22;3369;49.906;8.598;2024-03-23T04:56:46;9.40;99.90
6666;DHT22;3369;49.906;8.598;2024-03-23T04:59:12;9.40;99.90
6666;DHT22;3369;49.906;8.598;2024-03-23T05:01:37;9.30;99.90
6666;DHT22;3369;49.906;8.598;2024-03-23T05:04:05;9.20;99.90
6666;DHT22;3369;49.906;8.598;2024-03-23T05:06:31;9.10;99.90
6666;DHT22;3369;49.906;8.598;2024-03-23T05:08:57;9.00;99.90
6666;DHT22;3369;49.906;8.598;2024-03-23T05:11:22;8.90;99.90
6666;DHT22;3369;49.906;8.598;2024-03-23T05:13:48;8.90;99.90
6666;DHT22;3369;49.906;8.598;2024-03-23T05:16:13;8.70;99.90
6666;DHT22;3369;49.906;8.598;2024-03-23T05:18:39;8.80;99.90
6666;DHT22;3369;49.906;8.598;2024-03-23T05:21:04;8.70;99.90
6666;DHT22;3369;49.906;8.598;2024-03-23T05:23:30;8.70;99.90
6666;DHT22;3369;49.906;8.598;2024-03-23T05:25:56;8.70;99.90
6666;DHT22;3369;49.906;8.598;2024-03-23T05:28:22;8.60;99.90
6666;DHT22;3369;49.906;8.598;2024-03-23T05:30:51;8.60;99.90
6666;DHT22;3369;49.906;8.598;2024-03-23T05:33:18;8.60;99.90
6666;DHT22;3369;49.906;8.598;2024-03-23T05:35:44;8.60;99.90
6666;DHT22;3369;49.906;8.598;2024-03-23T05:38:09;8.60;99.90
6666;DHT22;3369;49.906;8.598;2024-03-23T05:40:35;8.50;99.90
6666;DHT22;3369;49.906;8.598;2024-03-23T05:43:03;8.50;99.90
6666;DHT22;3369;49.906;8.598;2024-03-23T05:45:29;8.40;99.90
6666;DHT22;3369;49.906;8.598;2024-03-23T05:47:54;8.40;99.90
6666;DHT22;3369;49.906;8.598;2024-03-23T05:50:22;8.40;99.90
6666;DHT22;3369;49.906;8.598;2024-03-23T05:52:48;8.40;99.90
6666;DHT22;3369;49.906;8.598;2024-03-23T05:55:14;8.40;99.90
6666;DHT22;3369;49.906;8.598;2024-03-23T05:57:40;8.40;99.90
6666;DHT22;3369;49.906;8.598;2024-03-23T06:00:06;8.50;99.90
6666;DHT22;3369;49.906;8.598;2024-03-23T06:02:35;8.50;99.90
6666;DHT22;3369;49.906;8.598;2024-03-23T06:05:01;8.40;99.90
6666;DHT22;3369;49.906;8.598;2024-03-23T06:07:27;8.40;99.90
6666;DHT22;3369;49.906;8.598;2024-03-23T06:09:53;8.40;99.90
6666;DHT22;3369;49.906;8.598;2024-03-23T06:12:18;8.40;99.90
6666;DHT22;3369;49.906;8.598;2024-03-23T06:14:44;8.40;99.90
6666;DHT22;3369;49.906;8.598;2024-03-23T06:17:09;8.30;99.90
6666;DHT22;3369;49.906;8.598;2024-03-23T06:19:35;8.30;99.90
6666;DHT22;3369;49.906;8.598;2024-03-23T06:22:00;8.30;99.90
6666;DHT22;3369;49.906;8.598;2024-03-23T06:24:26;8.30;99.90
6666;DHT22;3369;49.906;8.598;2024-03-23T06:26:52;8.30;99.90
6666;DHT22;3369;49.906;8.598;2024-03-23T06:29:18;8.30;99.90
6666;DHT22;3369;49.906;8.598;2024-03-23T06:31:43;8.30;99.90
6666;DHT22;3369;49.906;8.598;2024-03-23T06:34:09;8.30;99.90
6666;DHT22;3369;49.906;8.598;2024-03-23T06:36:34;8.30;99.90
6666;DHT22;3369;49.906;8.598;2024-03-23T06:39:01;8.20;99.90
6666;DHT22;3369;49.906;8.598;2024-03-23T06:41:27;8.20;99.90
6666;DHT22;3369;49.906;8.598;2024-03-23T06:43:52;8.20;99.90
6666;DHT22;3369;49.906;8.598;2024-03-23T06:46:18;8.20;99.90
6666;DHT22;3369;49.906;8.598;2024-03-23T06:48:45;8.20;99.90
6666;DHT22;3369;49.906;8.598;2024-03-23T06:51:11;8.10;99.90
6666;DHT22;3369;49.906;8.598;2024-03-23T06:53:36;8.10;99.90
6666;DHT22;3369;49.906;8.598;2024-03-23T06:56:02;8.10;99.90
6666;DHT22;3369;49.906;8.598;2024-03-23T06:58:28;8.10;99.90
6666;DHT22;3369;49.906;8.598;2024-03-23T07:00:53;8.00;99.90
6666;DHT22;3369;49.906;8.598;2024-03-23T07:03:19;8.00;99.90
6666;DHT22;3369;49.906;8.598;2024-03-23T07:05:45;7.90;99.90
6666;DHT22;3369;49.906;8.598;2024-03-23T07:08:11;7.80;99.90
6666;DHT22;3369;49.906;8.598;2024-03-23T07:10:40;7.80;99.90
6666;DHT22;3369;49.906;8.598;2024-03-23T07:13:05;7.70;99.90
6666;DHT22;3369;49.906;8.598;2024-03-23T07:15:31;7.70;99.90
6666;DHT22;3369;49.906;8.598;2024-03-23T07:17:56;7.70;99.90
6666;DHT22;3369;49.906;8.598;2024-03-23T07:20:22;7.80;99.90
6666;DHT22;3369;49.906;8.598;2024-03-23T07:22:48;7.80;99.90
6666;DHT22;3369;49.906;8.598;2024-03-23T07:25:14;7.90;99.90
6666;DHT22;3369;49.906;8.598;2024-03-23T07:27:40;8.00;99.90
6666;DHT22;3369;49.906;8.598;2024-03-23T07:30:06;8.00;99.90
6666;DHT22;3369;49.906;8.598;2024-03-23T07:32:32;8.10;99.90
6666;DHT22;3369;49.906;8.598;2024-03-23T07:34:58;8.00;99.90
6666;DHT22;3369;49.906;8.598;2024-03-23T07:37:23;8.10;99.90
6666;DHT22;3369;49.906;8.598;2024-03-23T07:39:49;8.00;99.90
6666;DHT22;3369;49.906;8.598;2024-03-23T07:42:15;8.10;99.90
6666;DHT22;3369;49.906;8.598;2024-03-23T07:44:40;8.10;99.90
6666;DHT22;3369;49.906;8.598;2024-03-23T07:47:06;8.10;99.90
6666;DHT22;3369;49.906;8.598;2024-03-23T07:49:32;8.20;99.90
6666;DHT22;3369;49.906;8.598;2024-03-23T07:51:58;8.20;99.90
6666;DHT22;3369;49.906;8.598;2024-03-23T07:54:23;8.30;99.90
6666;DHT22;3369;49.906;8.598;2024-03-23T07:56:49;8.30;99.90
6666;DHT22;3369;49.906;8.598;2024-03-23T07:59:14;8.40;99.90
6666;DHT22;3369;49.906;8.598;2024-03-23T08:01:40;8.60;99.90
6666;DHT22;3369;49.906;8.598;2024-03-23T08:04:06;8.80;99.90
6666;DHT22;3369;49.906;8.598;2024-03-23T08:06:31;8.90;99.90
6666;DHT22;3369;49.906;8.598;2024-03-23T08:08:58;9.00;99.90
6666;DHT22;3369;49.906;8.598;2024-03-23T08:11:30;9.10;99.90
6666;DHT22;3369;49.906;8.598;2024-03-23T08:13:57;9.10;99.90
6666;DHT22;3369;49.906;8.598;2024-03-23T08:16:23;9.10;99.90
6666;DHT22;3369;49.906;8.598;2024-03-23T08:18:51;9.00;99.90
6666;DHT22;3369;49.906;8.598;2024-03-23T08:21:17;9.00;99.90
6666;DHT22;3369;49.906;8.598;2024-03-23T08:23:43;9.00;99.90
6666;DHT22;3369;49.906;8.598;2024-03-23T08:26:12;9.00;99.90
6666;DHT22;3369;49.906;8.598;2024-03-23T08:28:38;8.90;99.90
6666;DHT22;3369;49.906;8.598;2024-03-23T08:31:08;8.80;99.90
6666;DHT22;3369;49.906;8.598;2024-03-23T08:33:36;8.90;99.90
6666;DHT22;3369;49.906;8.598;2024-03-23T08:36:04;9.10;99.90
6666;DHT22;3369;49.906;8.598;2024-03-23T08:38:31;9.20;99.90
6666;DHT22;3369;49.906;8.598;2024-03-23T08:41:07;9.40;99.90
6666;DHT22;3369;49.906;8.598;2024-03-23T08:43:36;9.60;99.90
6666;DHT22;3369;49.906;8.598;2024-03-23T08:46:14;9.80;99.90
6666;DHT22;3369;49.906;8.598;2024-03-23T08:48:47;9.90;99.90
6666;DHT22;3369;49.906;8.598;2024-03-23T08:51:15;10.00;99.80
6666;DHT22;3369;49.906;8.598;2024-03-23T08:53:41;10.00;99.80
6666;DHT22;3369;49.906;8.598;2024-03-23T08:56:08;10.10;99.90
6666;DHT22;3369;49.906;8.598;2024-03-23T08:58:35;10.20;99.60
6666;DHT22;3369;49.906;8.598;2024-03-23T09:01:19;10.20;98.70
6666;DHT22;3369;49.906;8.598;2024-03-23T09:03:44;10.20;98.40
6666;DHT22;3369;49.906;8.598;2024-03-23T09:06:12;10.20;98.20
6666;DHT22;3369;49.906;8.598;2024-03-23T09:08:39;10.20;97.90
6666;DHT22;3369;49.906;8.598;2024-03-23T09:11:10;10.20;97.50
6666;DHT22;3369;49.906;8.598;2024-03-23T09:13:37;10.30;97.60
6666;DHT22;3369;49.906;8.598;2024-03-23T09:16:03;10.30;97.70
6666;DHT22;3369;49.906;8.598;2024-03-23T09:18:35;10.40;97.60
6666;DHT22;3369;49.906;8.598;2024-03-23T09:21:01;10.40;97.70
6666;DHT22;3369;49.906;8.598;2024-03-23T09:23:26;10.40;97.80
6666;DHT22;3369;49.906;8.598;2024-03-23T09:25:52;10.40;97.30
6666;DHT22;3369;49.906;8.598;2024-03-23T09:28:18;10.40;97.10
6666;DHT22;3369;49.906;8.598;2024-03-23T09:30:44;10.40;97.10
6666;DHT22;3369;49.906;8.598;2024-03-23T09:33:13;10.30;96.90
6666;DHT22;3369;49.906;8.598;2024-03-23T09:35:39;10.30;97.10
6666;DHT22;3369;49.906;8.598;2024-03-23T09:38:05;10.30;97.10
6666;DHT22;3369;49.906;8.598;2024-03-23T09:40:33;10.20;96.70
6666;DHT22;3369;49.906;8.598;2024-03-23T09:42:58;10.10;96.70
6666;DHT22;3369;49.906;8.598;2024-03-23T09:45:29;10.10;96.80
6666;DHT22;3369;49.906;8.598;2024-03-23T09:47:57;10.00;96.40
6666;DHT22;3369;49.906;8.598;2024-03-23T09:50:23;10.00;96.60
6666;DHT22;3369;49.906;8.598;2024-03-23T09:52:49;10.00;96.60
6666;DHT22;3369;49.906;8.598;2024-03-23T09:55:15;9.90;96.90
6666;DHT22;3369;49.906;8.598;2024-03-23T09:57:41;9.90;96.60
6666;DHT22;3369;49.906;8.598;2024-03-23T10:00:08;9.90;96.30
6666;DHT22;3369;49.906;8.598;2024-03-23T10:02:34;9.80;95.70
6666;DHT22;3369;49.906;8.598;2024-03-23T10:05:00;9.90;95.70
6666;DHT22;3369;49.906;8.598;2024-03-23T10:07:26;10.00;95.20
6666;DHT22;3369;49.906;8.598;2024-03-23T10:09:55;10.00;95.20
6666;DHT22;3369;49.906;8.598;2024-03-23T10:12:22;10.10;95.10
6666;DHT22;3369;49.906;8.598;2024-03-23T10:14:49;10.10;94.70
6666;DHT22;3369;49.906;8.598;2024-03-23T10:17:22;10.10;94.40
6666;DHT22;3369;49.906;8.598;2024-03-23T10:19:52;10.10;94.30
6666;DHT22;3369;49.906;8.598;2024-03-23T10:22:22;10.10;94.60
6666;DHT22;3369;49.906;8.598;2024-03-23T10:24:48;10.30;95.20
6666;DHT22;3369;49.906;8.598;2024-03-23T10:27:21;10.40;95.60
6666;DHT22;3369;49.906;8.598;2024-03-23T10:29:48;10.60;95.10
6666;DHT22;3369;49.906;8.598;2024-03-23T10:32:18;10.60;94.90
6666;DHT22;3369;49.906;8.598;2024-03-23T10:34:44;10.60;95.00
6666;DHT22;3369;49.906;8.598;2024-03-23T10:37:10;10.60;94.20
6666;DHT22;3369;49.906;8.598;2024-03-23T10:39:38;10.50;93.30
6666;DHT22;3369;49.906;8.598;2024-03-23T10:42:06;10.50;92.80
6666;DHT22;3369;49.906;8.598;2024-03-23T10:44:33;10.50;92.40
6666;DHT22;3369;49.906;8.598;2024-03-23T10:46:59;10.60;91.90
6666;DHT22;3369;49.906;8.598;2024-03-23T10:49:28;10.60;90.90
6666;DHT22;3369;49.906;8.598;2024-03-23T10:51:58;10.50;90.50
6666;DHT22;3369;49.906;8.598;2024-03-23T10:54:25;10.30;90.90
6666;DHT22;3369;49.906;8.598;2024-03-23T10:57:14;9.90;92.30
6666;DHT22;3369;49.906;8.598;2024-03-23T10:59:38;9.50;93.10
6666;DHT22;3369;49.906;8.598;2024-03-23T11:02:05;9.20;93.50
6666;DHT22;3369;49.906;8.598;2024-03-23T11:04:37;8.90;94.10
6666;DHT22;3369;49.906;8.598;2024-03-23T11:09:49;8.60;95.10
6666;DHT22;3369;49.906;8.598;2024-03-23T11:15:04;8.30;96.80
6666;DHT22;3369;49.906;8.598;2024-03-23T11:17:30;8.20;97.70
6666;DHT22;3369;49.906;8.598;2024-03-23T11:19:58;8.10;97.90
6666;DHT22;3369;49.906;8.598;2024-03-23T11:22:44;8.00;98.10
6666;DHT22;3369;49.906;8.598;2024-03-23T11:25:16;7.90;98.50
6666;DHT22;3369;49.906;8.598;2024-03-23T11:27:46;7.70;98.90
6666;DHT22;3369;49.906;8.598;2024-03-23T11:30:15;7.60;99.50
6666;DHT22;3369;49.906;8.598;2024-03-23T11:32:55;7.40;99.90
6666;DHT22;3369;49.906;8.598;2024-03-23T11:35:32;7.30;99.90
6666;DHT22;3369;49.906;8.598;2024-03-23T11:38:21;7.30;99.90
6666;DHT22;3369;49.906;8.598;2024-03-23T11:40:48;7.30;99.90
6666;DHT22;3369;49.906;8.598;2024-03-23T11:43:19;7.40;99.90
6666;DHT22;3369;49.906;8.598;2024-03-23T11:45:52;7.50;99.90
6666;DHT22;3369;49.906;8.598;2024-03-23T11:48:20;7.60;99.90
6666;DHT22;3369;49.906;8.598;2024-03-23T11:50:47;7.60;99.90
6666;DHT22;3369;49.906;8.598;2024-03-23T11:53:17;7.70;99.90
6666;DHT22;3369;49.906;8.598;2024-03-23T11:55:54;7.80;99.90
6666;DHT22;3369;49.906;8.598;2024-03-23T11:58:22;8.00;99.90
6666;DHT22;3369;49.906;8.598;2024-03-23T12:01:01;8.20;99.90
6666;DHT22;3369;49.906;8.598;2024-03-23T12:03:28;8.40;99.90
6666;DHT22;3369;49.906;8.598;2024-03-23T12:05:55;8.60;99.90
6666;DHT22;3369;49.906;8.598;2024-03-23T12:08:23;8.80;99.90
6666;DHT22;3369;49.906;8.598;2024-03-23T12:10:53;9.10;99.90
6666;DHT22;3369;49.906;8.598;2024-03-23T12:13:20;9.30;99.90
6666;DHT22;3369;49.906;8.598;2024-03-23T12:15:49;9.60;99.90
6666;DHT22;3369;49.906;8.598;2024-03-23T12:18:15;9.70;99.00
6666;DHT22;3369;49.906;8.598;2024-03-23T12:20:41;10.00;97.90
6666;DHT22;3369;49.906;8.598;2024-03-23T12:23:08;10.10;96.00
6666;DHT22;3369;49.906;8.598;2024-03-23T12:25:38;10.30;96.20
6666;DHT22;3369;49.906;8.598;2024-03-23T12:28:04;10.50;95.60
6666;DHT22;3369;49.906;8.598;2024-03-23T12:30:39;10.70;94.80
6666;DHT22;3369;49.906;8.598;2024-03-23T12:33:05;10.90;94.60
6666;DHT22;3369;49.906;8.598;2024-03-23T12:35:31;11.10;94.50
6666;DHT22;3369;49.906;8.598;2024-03-23T12:37:57;11.20;94.20
6666;DHT22;3369;49.906;8.598;2024-03-23T12:40:23;11.20;92.80
6666;DHT22;3369;49.906;8.598;2024-03-23T12:42:48;11.00;92.70
6666;DHT22;3369;49.906;8.598;2024-03-23T12:45:14;10.90;92.70
6666;DHT22;3369;49.906;8.598;2024-03-23T12:47:40;10.80;92.70
6666;DHT22;3369;49.906;8.598;2024-03-23T12:50:06;10.70;93.00
6666;DHT22;3369;49.906;8.598;2024-03-23T12:52:32;10.60;92.50
6666;DHT22;3369;49.906;8.598;2024-03-23T12:54:58;10.40;92.50
6666;DHT22;3369;49.906;8.598;2024-03-23T12:57:24;10.40;92.90
6666;DHT22;3369;49.906;8.598;2024-03-23T12:59:51;10.30;93.10
6666;DHT22;3369;49.906;8.598;2024-03-23T13:02:19;10.30;93.40
6666;DHT22;3369;49.906;8.598;2024-03-23T13:04:48;10.30;93.70
6666;DHT22;3369;49.906;8.598;2024-03-23T13:07:14;10.10;93.80
6666;DHT22;3369;49.906;8.598;2024-03-23T13:09:40;9.90;94.70
6666;DHT22;3369;49.906;8.598;2024-03-23T13:12:06;9.70;95.40
6666;DHT22;3369;49.906;8.598;2024-03-23T13:14:32;9.40;96.30
6666;DHT22;3369;49.906;8.598;2024-03-23T13:16:57;9.10;98.10
6666;DHT22;3369;49.906;8.598;2024-03-23T13:19:23;8.70;98.70
6666;DHT22;3369;49.906;8.598;2024-03-23T13:21:53;8.00;98.70
6666;DHT22;3369;49.906;8.598;2024-03-23T13:24:22;7.40;99.50
6666;DHT22;3369;49.906;8.598;2024-03-23T13:26:49;7.10;99.90
6666;DHT22;3369;49.906;8.598;2024-03-23T13:29:15;6.90;99.90
6666;DHT22;3369;49.906;8.598;2024-03-23T13:31:40;6.70;99.90
6666;DHT22;3369;49.906;8.598;2024-03-23T13:34:06;6.60;99.90
6666;DHT22;3369;49.906;8.598;2024-03-23T13:36:32;6.70;99.90
6666;DHT22;3369;49.906;8.598;2024-03-23T13:38:57;6.70;99.90
6666;DHT22;3369;49.906;8.598;2024-03-23T13:41:24;6.90;99.90
6666;DHT22;3369;49.906;8.598;2024-03-23T13:43:49;6.90;99.90
6666;DHT22;3369;49.906;8.598;2024-03-23T13:46:15;7.10;99.90
6666;DHT22;3369;49.906;8.598;2024-03-23T13:48:41;7.40;99.90
6666;DHT22;3369;49.906;8.598;2024-03-23T13:51:07;7.70;99.90
6666;DHT22;3369;49.906;8.598;2024-03-23T13:53:33;7.80;99.90
6666;DHT22;3369;49.906;8.598;2024-03-23T13:55:59;8.00;99.90
6666;DHT22;3369;49.906;8.598;2024-03-23T13:58:24;8.00;99.90
6666;DHT22;3369;49.906;8.598;2024-03-23T14:00:53;8.00;99.90
6666;DHT22;3369;49.906;8.598;2024-03-23T14:03:19;8.00;99.90
6666;DHT22;3369;49.906;8.598;2024-03-23T14:05:45;8.00;99.90
6666;DHT22;3369;49.906;8.598;2024-03-23T14:08:12;8.00;99.90
6666;DHT22;3369;49.906;8.598;2024-03-23T14:10:41;8.00;99.90
6666;DHT22;3369;49.906;8.598;2024-03-23T14:13:07;8.00;99.90
6666;DHT22;3369;49.906;8.598;2024-03-23T14:15:33;8.10;99.90
6666;DHT22;3369;49.906;8.598;2024-03-23T14:17:59;8.20;99.90
6666;DHT22;3369;49.906;8.598;2024-03-23T14:20:25;8.20;99.90
6666;DHT22;3369;49.906;8.598;2024-03-23T14:22:51;8.30;99.90
6666;DHT22;3369;49.906;8.598;2024-03-23T14:25:17;8.40;99.90
6666;DHT22;3369;49.906;8.598;2024-03-23T14:27:46;8.40;99.90
6666;DHT22;3369;49.906;8.598;2024-03-23T14:30:12;8.60;99.90
6666;DHT22;3369;49.906;8.598;2024-03-23T14:32:39;8.60;99.90
6666;DHT22;3369;49.906;8.598;2024-03-23T14:35:05;8.60;99.90
6666;DHT22;3369;49.906;8.598;2024-03-23T14:37:36;8.60;99.90
6666;DHT22;3369;49.906;8.598;2024-03-23T14:40:03;8.60;99.90
6666;DHT22;3369;49.906;8.598;2024-03-23T14:42:29;8.60;99.90
6666;DHT22;3369;49.906;8.598;2024-03-23T14:44:54;8.60;99.90
6666;DHT22;3369;49.906;8.598;2024-03-23T14:47:20;8.70;99.90
6666;DHT22;3369;49.906;8.598;2024-03-23T14:49:46;8.70;99.90
6666;DHT22;3369;49.906;8.598;2024-03-23T14:52:19;8.80;99.90
6666;DHT22;3369;49.906;8.598;2024-03-23T14:54:45;8.90;99.90
6666;DHT22;3369;49.906;8.598;2024-03-23T14:57:11;9.00;99.00
6666;DHT22;3369;49.906;8.598;2024-03-23T14:59:37;9.10;98.70
6666;DHT22;3369;49.906;8.598;2024-03-23T15:02:09;9.10;98.40
6666;DHT22;3369;49.906;8.598;2024-03-23T15:04:35;9.10;98.10
6666;DHT22;3369;49.906;8.598;2024-03-23T15:07:01;9.00;96.90
6666;DHT22;3369;49.906;8.598;2024-03-23T15:09:27;8.90;96.80
6666;DHT22;3369;49.906;8.598;2024-03-23T15:11:52;9.00;97.20
6666;DHT22;3369;49.906;8.598;2024-03-23T15:14:20;9.20;97.10
6666;DHT22;3369;49.906;8.598;2024-03-23T15:16:46;9.20;96.20
6666;DHT22;3369;49.906;8.598;2024-03-23T15:19:14;9.20;96.50
6666;DHT22;3369;49.906;8.598;2024-03-23T15:21:40;9.20;96.60
6666;DHT22;3369;49.906;8.598;2024-03-23T15:24:06;9.20;96.90
6666;DHT22;3369;49.906;8.598;2024-03-23T15:26:32;9.30;96.90
6666;DHT22;3369;49.906;8.598;2024-03-23T15:28:58;9.20;96.30
6666;DHT22;3369;49.906;8.598;2024-03-23T15:31:24;9.20;96.30
6666;DHT22;3369;49.906;8.598;2024-03-23T15:33:50;9.20;96.50
6666;DHT22;3369;49.906;8.598;2024-03-23T15:36:16;9.10;96.60
6666;DHT22;3369;49.906;8.598;2024-03-23T15:38:43;9.00;96.60
6666;DHT22;3369;49.906;8.598;2024-03-23T15:41:09;8.80;96.90
6666;DHT22;3369;49.906;8.598;2024-03-23T15:43:35;8.70;96.90
6666;DHT22;3369;49.906;8.598;2024-03-23T15:46:04;8.70;97.20
6666;DHT22;3369;49.906;8.598;2024-03-23T15:48:31;8.50;97.70
6666;DHT22;3369;49.906;8.598;2024-03-23T15:50:59;8.40;98.50
6666;DHT22;3369;49.906;8.598;2024-03-23T15:53:26;8.30;98.80
6666;DHT22;3369;49.906;8.598;2024-03-23T15:58:24;8.00;98.70
6666;DHT22;3369;49.906;8.598;2024-03-23T16:00:56;7.90;98.90
6666;DHT22;3369;49.906;8.598;2024-03-23T16:03:22;7.90;98.90
6666;DHT22;3369;49.906;8.598;2024-03-23T16:05:55;7.90;99.10
6666;DHT22;3369;49.906;8.598;2024-03-23T16:08:21;8.00;99.30
6666;DHT22;3369;49.906;8.598;2024-03-23T16:10:47;8.10;99.20
6666;DHT22;3369;49.906;8.598;2024-03-23T16:13:13;8.20;99.10
6666;DHT22;3369;49.906;8.598;2024-03-23T16:15:38;8.30;99.00
6666;DHT22;3369;49.906;8.598;2024-03-23T16:18:04;8.30;98.50
6666;DHT22;3369;49.906;8.598;2024-03-23T16:20:30;8.20;98.40
6666;DHT22;3369;49.906;8.598;2024-03-23T16:22:57;8.20;98.00
6666;DHT22;3369;49.906;8.598;2024-03-23T16:25:23;8.10;97.90
6666;DHT22;3369;49.906;8.598;2024-03-23T16:27:49;8.10;97.90
6666;DHT22;3369;49.906;8.598;2024-03-23T16:30:15;8.00;97.50
6666;DHT22;3369;49.906;8.598;2024-03-23T16:32:41;8.00;97.80
6666;DHT22;3369;49.906;8.598;2024-03-23T16:35:07;8.00;97.90
6666;DHT22;3369;49.906;8.598;2024-03-23T16:37:35;8.10;98.00
6666;DHT22;3369;49.906;8.598;2024-03-23T16:40:01;8.10;98.10
6666;DHT22;3369;49.906;8.598;2024-03-23T16:42:26;8.10;98.00
6666;DHT22;3369;49.906;8.598;2024-03-23T16:44:52;8.10;98.10
6666;DHT22;3369;49.906;8.598;2024-03-23T16:47:18;8.10;97.90
6666;DHT22;3369;49.906;8.598;2024-03-23T16:49:43;8.10;97.80
6666;DHT22;3369;49.906;8.598;2024-03-23T16:52:09;8.10;97.70
6666;DHT22;3369;49.906;8.598;2024-03-23T16:54:35;8.10;97.60
6666;DHT22;3369;49.906;8.598;2024-03-23T16:57:00;8.10;97.40
6666;DHT22;3369;49.906;8.598;2024-03-23T16:59:26;8.00;97.30
6666;DHT22;3369;49.906;8.598;2024-03-23T17:01:51;8.00;97.20
6666;DHT22;3369;49.906;8.598;2024-03-23T17:04:17;8.00;97.10
6666;DHT22;3369;49.906;8.598;2024-03-23T17:06:43;7.90;96.80
6666;DHT22;3369;49.906;8.598;2024-03-23T17:09:08;7.90;96.80
6666;DHT22;3369;49.906;8.598;2024-03-23T17:11:37;7.90;96.60